HECA/CAI METAR and TAF weather

Enter ICAO airport designator
Station Type Date Time Source
HECA METAR 2021/07/29 01:30 UTC NOAA

HECA 290130Z 29004KT CAVOK 27/23 Q1007 NOSIG


Station Type Date Time Source
HECA Decoded METAR 2021/07/29 01:30 UTC NOAA

Cairo Airport, Egypt (HECA) 30-08N 031-24E 74M
Jul 28, 2021 - 09:30 PM EDT / 2021.07.29 0130 UTC
Wind: from the WNW (290 degrees) at 5 MPH (4 KT):0
Visibility: greater than 7 mile(s):0
Temperature: 80 F (27 C)
Dew Point: 73 F (23 C)
Relative Humidity: 78%
Pressure (altimeter): 29.74 in. Hg (1007 hPa)
ob: HECA 290130Z 29004KT CAVOK 27/23 Q1007 NOSIG
cycle: 1

Station Type Date Time Source
HECA TAF 2021/07/29 00:40 UTC NOAA

TAF HECA 282300Z 2900/3006 32007KT CAVOK
TEMPO 2900/2906 VRB03KT 4000 BR NSC

Example: see airport list